Latest Weather Observations for Gannett Cay

IDQ60801

Issued at 3:32 am EST Tuesday 22 August 2017 (issued every 30 minutes, with the page automatically refreshed every 10 minutes)

About weather observations | Map of weather stations | Latest weather observations for QLD | Other Formats
Station Details ID: 200831 Name: GANNET CAY Lat: -21.98 Lon: 152.47 Height: 2.3 m
Data from the previous 72 hours. | See also: Recent months for locations in Queensland
Date/Time
EST
Temp
°C
App
Temp
°C
Dew
Point
°C
Rel
Hum
%
Delta-T
°C
Wind Press
QNH
hPa
Press
MSL
hPa
Rain since
9am
mm
Dir  Spd
km/h
Gust
km/h
Spd
kts
Gust
kts
22/03:30am 21.0 - - - - NNE 17 19 9 10 1017.7 - -
22/03:29am 20.9 - - - - NNE 17 19 9 10 1017.7 1017.8 -
22/03:00am 21.0 - - - - NNE 11 15 6 8 1017.9 - -
22/02:30am 21.0 - - - - NNE 19 20 10 11 1018.0 - -
22/02:29am 21.0 - - - - NNE 19 - 10 - - 1018.0 -
22/02:00am 21.0 - - - - NNE 19 24 10 13 1018.0 - -
22/01:30am 21.2 - - - - NNE 22 26 12 14 1018.3 - -
22/01:29am 21.3 - - - - NNE 22 - 12 - - 1018.5 -
22/01:00am 21.3 - - - - NE 22 28 12 15 1018.7 - -
22/12:30am 21.3 - - - - NNE 22 26 12 14 1018.7 - -
22/12:29am 21.4 - - - - NNE 22 - 12 - - 1018.8 -
22/12:00am 21.2 - - - - NE 22 28 12 15 1019.0 - -
 
Date/Time
EST
Temp
°C
App
Temp
°C
Dew
Point
°C
Rel
Hum
%
Delta-T
°C
Wind Press
QNH
hPa
Press
MSL
hPa
Rain since
9am
mm
Dir  Spd
km/h
Gust
km/h
Spd
kts
Gust
kts
21/11:30pm 21.0 - - - - NE 19 24 10 13 1019.2 - -
21/11:29pm 21.0 - - - - NE 19 - 10 - - 1019.3 -
21/11:00pm 21.0 - - - - ENE 19 24 10 13 1019.5 - -
21/10:30pm 20.9 - - - - ENE 20 26 11 14 1019.5 - -
21/10:29pm 21.0 - - - - ENE 20 - 11 - - 1019.6 -
21/10:00pm 21.1 - - - - ENE 19 22 10 12 1019.4 - -
21/09:30pm 20.9 - - - - ENE 20 22 11 12 1019.3 - -
21/09:29pm 21.0 - - - - ENE 19 - 10 - - 1019.4 -
21/09:00pm 20.6 - - - - E 22 24 12 13 1019.3 - -
21/08:30pm 20.7 - - - - E 22 26 12 14 1019.3 - -
21/08:29pm 20.8 - - - - E 22 - 12 - - 1019.4 -
21/08:00pm 20.7 - - - - E 20 26 11 14 1019.2 - -
21/07:30pm 20.9 - - - - E 24 28 13 15 1018.9 - -
21/07:29pm 21.0 - - - - E 24 - 13 - - 1019.0 -
21/07:00pm 20.8 - - - - E 24 28 13 15 1018.5 - -
21/06:30pm 20.6 - - - - ESE 22 26 12 14 1018.2 - -
21/06:29pm 20.5 - - - - ESE 22 - 12 - - 1018.2 -
21/06:00pm 20.6 - - - - ESE 22 28 12 15 1017.9 - -
21/05:30pm 20.0 - - - - NW 6 7 3 4 1017.8 - -
21/05:29pm 19.8 - - - - NW 6 - 3 - - 1017.9 -
21/05:00pm 19.7 - - - - CALM 0 0 0 0 1017.7 - -
21/04:30pm 19.5 - - - - CALM 0 0 0 0 1017.7 - -
21/04:29pm 19.5 - - - - CALM 0 - 0 - - 1017.8 -
21/04:00pm 18.9 - - - - N 9 15 5 8 1017.5 - -
21/03:30pm 19.8 - - - - W 9 11 5 6 1017.5 - -
21/03:29pm 19.7 - - - - WNW 9 - 5 - - 1017.6 -
21/03:00pm 19.2 - - - - NNW 7 9 4 5 1017.5 - -
21/02:30pm 19.5 - - - - ENE 13 19 7 10 1017.7 - -
21/02:29pm 19.4 - - - - ENE 13 - 7 - - 1017.8 -
21/02:00pm 20.9 - - - - NNE 6 7 3 4 1017.7 - -
21/01:30pm 19.8 - - - - NE 11 13 6 7 1017.8 - -
21/01:29pm 19.9 - - - - NE 11 - 6 - - 1017.9 -
21/01:00pm 19.7 - - - - SSE 20 24 11 13 1018.2 - -
21/12:30pm 20.1 - - - - ENE 17 22 9 12 1018.3 - -
21/12:29pm 20.1 - - - - ENE 17 - 9 - - 1018.4 -
21/12:00pm 19.4 - - - - E 37 44 20 24 1018.7 - -
21/11:52am 19.6 - - - - E 37 44 20 24 1018.6 - -
21/11:30am 20.6 - - - - ESE 32 39 17 21 1018.9 - -
21/11:29am 20.5 - - - - ESE 32 - 17 - - 1019.1 -
21/11:00am 21.1 - - - - SE 26 32 14 17 1019.3 - -
21/10:30am 20.9 - - - - ESE 30 35 16 19 1019.7 - -
21/10:29am 20.8 - - - - ESE 28 - 15 - - 1019.8 -
21/10:00am 21.6 - - - - ESE 24 30 13 16 1019.6 - -
21/09:30am 21.3 - - - - ESE 26 32 14 17 1019.7 - -
21/09:29am 21.3 - - - - ESE 26 - 14 - - 1019.8 -
21/09:00am 21.0 - - - - SE 26 32 14 17 1019.6 - -
21/08:30am 21.4 - - - - ESE 28 32 15 17 1019.4 - -
21/08:29am 21.3 - - - - ESE 28 - 15 - - 1019.5 -
21/08:00am 21.2 - - - - ESE 26 32 14 17 1019.2 - -
21/07:30am 21.2 - - - - ESE 30 35 16 19 1018.9 - -
21/07:29am 21.1 - - - - ESE 32 - 17 - - 1019.0 -
21/07:00am 20.9 - - - - ESE 33 37 18 20 1018.4 - -
21/06:30am 20.6 - - - - SE 32 39 17 21 1018.0 - -
21/06:29am 20.6 - - - - SE 30 - 16 - - 1018.1 -
21/06:00am 20.5 - - - - ESE 32 35 17 19 1017.6 - -
21/05:30am 20.6 - - - - ESE 32 37 17 20 1017.4 - -
21/05:29am 20.6 - - - - ESE 32 - 17 - - 1017.5 -
21/05:00am 20.5 - - - - SE 33 41 18 22 1017.0 - -
21/04:30am 20.4 - - - - SE 33 37 18 20 1016.8 - -
21/04:29am 20.3 - - - - SE 33 - 18 - - 1016.9 -
21/04:00am 20.2 - - - - ESE 33 39 18 21 1016.6 - -
21/03:30am 20.1 - - - - ESE 33 39 18 21 1016.8 - -
21/03:29am 20.1 - - - - ESE 33 - 18 - - 1017.0 -
21/03:00am 20.0 - - - - SE 37 46 20 25 1016.8 - -
21/02:30am 20.1 - - - - SE 37 44 20 24 1017.0 - -
21/02:29am 20.0 - - - - SE 35 - 19 - - 1017.1 -
21/02:00am 20.2 - - - - SE 35 44 19 24 1017.2 - -
21/01:30am 20.1 - - - - SE 39 44 21 24 1017.6 - -
21/01:29am 20.1 - - - - SE 37 - 20 - - 1017.7 -
21/01:00am 20.2 - - - - SE 35 44 19 24 1017.8 - -
21/12:30am 20.1 - - - - SE 37 43 20 23 1017.9 - -
21/12:29am 20.0 - - - - SE 37 - 20 - - 1018.1 -
21/12:00am 20.0 - - - - SSE 39 46 21 25 1018.1 - -
 
Date/Time
EST
Temp
°C
App
Temp
°C
Dew
Point
°C
Rel
Hum
%
Delta-T
°C
Wind Press
QNH
hPa
Press
MSL
hPa
Rain since
9am
mm
Dir  Spd
km/h
Gust
km/h
Spd
kts
Gust
kts
20/11:30pm 20.0 - - - - SE 39 44 21 24 1018.3 - -
20/11:29pm 20.1 - - - - SE 39 - 21 - - 1018.5 -
20/11:00pm 20.1 - - - - SSE 41 46 22 25 1018.4 - -
20/10:30pm 20.1 - - - - SSE 41 48 22 26 1018.5 - -
20/10:29pm 20.1 - - - - SSE 41 - 22 - - 1018.6 -
20/10:00pm 20.3 - - - - SSE 41 50 22 27 1018.6 - -
20/09:30pm 20.3 - - - - SSE 37 46 20 25 1018.5 - -
20/09:29pm 20.2 - - - - SSE 37 - 20 - - 1018.6 -
20/09:00pm 19.7 - - - - SSE 37 43 20 23 1018.6 - -
20/08:30pm 19.4 - - - - SSE 37 46 20 25 1018.5 - -
20/08:29pm 19.5 - - - - SSE 35 - 19 - - 1018.6 -
20/08:24pm 19.4 - - - - S 28 46 15 25 1018.5 - -
20/08:00pm 18.9 - - - - S 35 41 19 22 1018.4 - -
20/07:30pm 19.2 - - - - S 32 39 17 21 1018.1 - -
20/07:29pm 19.3 - - - - S 32 - 17 - - 1018.2 -
20/07:00pm 19.0 - - - - S 32 39 17 21 1018.0 - -
20/06:30pm 18.7 - - - - S 30 37 16 20 1017.8 - -
20/06:29pm 18.7 - - - - S 30 - 16 - - 1017.9 -
20/06:00pm 18.6 - - - - S 28 35 15 19 1017.5 - -
20/05:30pm 18.5 - - - - S 28 33 15 18 1017.3 - -
20/05:29pm 18.6 - - - - S 28 - 15 - - 1017.4 -
20/05:00pm 18.6 - - - - S 26 33 14 18 1017.2 - -
20/04:30pm 18.5 - - - - S 28 39 15 21 1017.1 - -
20/04:29pm 18.5 - - - - S 30 - 16 - - 1017.2 -
20/04:00pm 19.0 - - - - S 24 32 13 17 1016.8 - -
20/03:30pm 19.0 - - - - SSE 24 32 13 17 1016.7 - -
20/03:29pm 19.1 - - - - SSE 24 - 13 - - 1016.7 -
20/03:00pm 18.8 - - - - SSE 24 33 13 18 1016.5 - -
20/02:30pm 18.1 - - - - S 28 37 15 20 1016.4 - -
20/02:29pm 18.5 - - - - S 28 - 15 - - 1016.5 -
20/02:00pm 18.0 - - - - S 28 37 15 20 1016.6 - -
20/01:30pm 18.2 - - - - S 26 32 14 17 1017.0 - -
20/01:29pm 18.4 - - - - S 26 - 14 - - 1017.1 -
20/01:00pm 18.1 - - - - S 30 35 16 19 1017.4 - -
20/12:30pm 17.6 - - - - S 33 41 18 22 1017.6 - -
20/12:29pm 17.5 - - - - S 33 - 18 - - 1017.7 -
20/12:00pm 17.8 - - - - S 33 41 18 22 1018.0 - -
20/11:30am 17.7 - - - - S 32 39 17 21 1018.4 - -
20/11:29am 17.7 - - - - S 33 - 18 - - 1018.5 -
20/11:00am 17.8 - - - - S 35 44 19 24 1018.6 - -
20/10:30am 17.8 - - - - S 37 48 20 26 1018.9 - -
20/10:29am 17.6 - - - - S 37 - 20 - - 1019.0 -
20/10:00am 17.7 - - - - S 35 44 19 24 1019.1 - -
20/09:30am 17.5 - - - - S 37 43 20 23 1019.1 - -
20/09:29am 17.6 - - - - S 37 - 20 - - 1019.3 -
20/09:00am 17.7 - - - - S 39 48 21 26 1018.9 - -
20/08:30am 17.7 - - - - S 41 48 22 26 1018.8 - -
20/08:29am 17.5 - - - - S 41 - 22 - - 1018.9 -
20/08:00am 17.6 - - - - S 43 57 23 31 1018.6 - -
20/07:30am 17.9 - - - - S 44 54 24 29 1018.2 - -
20/07:29am 17.7 - - - - S 43 - 23 - - 1018.3 -
20/07:00am 17.8 - - - - S 43 50 23 27 1017.8 - -
20/06:30am 18.0 - - - - S 43 52 23 28 1017.4 - -
20/06:29am 18.0 - - - - S 43 - 23 - - 1017.4 -
20/06:00am 18.4 - - - - S 41 52 22 28 1017.2 - -
20/05:52am 18.4 - - - - S 43 61 23 33 1017.2 - -
20/05:30am 18.3 - - - - S 41 52 22 28 1016.9 - -
20/05:29am 18.6 - - - - S 41 - 22 - - 1017.0 -
20/05:00am 18.6 - - - - S 44 59 24 32 1016.5 - -
20/04:30am 18.8 - - - - S 44 54 24 29 1016.1 - -
20/04:29am 18.7 - - - - S 44 - 24 - - 1016.1 -
20/04:00am 19.0 - - - - S 43 52 23 28 1016.0 - -
20/03:30am 19.4 - - - - S 43 52 23 28 1015.9 - -
20/03:29am 19.7 - - - - S 43 - 23 - - 1016.0 -
20/03:00am 20.0 - - - - S 44 56 24 30 1016.0 - -
20/02:30am 20.2 - - - - S 43 52 23 28 1016.1 - -
20/02:29am 19.9 - - - - S 44 - 24 - - 1016.2 -
20/02:00am 20.5 - - - - S 44 52 24 28 1016.0 - -
20/01:30am 20.9 - - - - S 46 52 25 28 1016.0 - -
20/01:29am 20.9 - - - - S 44 - 24 - - 1016.1 -
20/01:00am 21.5 - - - - S 35 50 19 27 1016.1 - -
20/12:58am 21.6 - - - - S 32 50 17 27 1016.1 - -
20/12:30am 21.5 - - - - S 26 33 14 18 1016.6 - -
20/12:29am 21.5 - - - - SSW 26 - 14 - - 1016.7 -
20/12:00am 21.4 - - - - S 20 26 11 14 1016.8 - -
 
Date/Time
EST
Temp
°C
App
Temp
°C
Dew
Point
°C
Rel
Hum
%
Delta-T
°C
Wind Press
QNH
hPa
Press
MSL
hPa
Rain since
9am
mm
Dir  Spd
km/h
Gust
km/h
Spd
kts
Gust
kts
19/11:30pm 21.3 - - - - SSW 19 24 10 13 1017.0 - -
19/11:29pm 21.3 - - - - SSW 19 - 10 - - 1017.1 -
19/11:00pm 21.3 - - - - SSW 17 20 9 11 1017.2 - -
19/10:30pm 20.9 - - - - S 15 19 8 10 1017.5 - -
19/10:29pm 20.9 - - - - S 15 - 8 - - 1017.6 -
19/10:00pm 21.0 - - - - S 17 20 9 11 1017.5 - -
19/09:30pm 21.1 - - - - S 19 22 10 12 1017.5 - -
19/09:29pm 21.1 - - - - S 19 - 10 - - 1017.6 -
19/09:00pm 21.0 - - - - S 19 24 10 13 1017.5 - -
19/08:30pm 21.3 - - - - SSW 26 32 14 17 1017.5 - -
19/08:29pm 21.4 - - - - SSW 26 - 14 - - 1017.5 -
19/08:00pm 21.3 - - - - SSW 22 30 12 16 1017.3 - -
19/07:30pm 20.8 - - - - SSW 24 30 13 16 1016.9 - -
19/07:29pm 20.8 - - - - SSW 26 - 14 - - 1017.0 -
19/07:00pm 20.5 - - - - SSW 26 33 14 18 1016.5 - -
19/06:30pm 20.4 - - - - SSW 28 33 15 18 1016.1 - -
19/06:29pm 20.6 - - - - SSW 28 - 15 - - 1016.2 -
19/06:00pm 20.5 - - - - SSW 30 35 16 19 1015.6 - -
19/05:30pm 20.3 - - - - SSW 30 35 16 19 1015.3 - -
19/05:29pm 20.3 - - - - SSW 32 - 17 - - 1015.4 -
19/05:00pm 20.3 - - - - SSW 32 41 17 22 1015.1 - -
19/04:30pm 20.2 - - - - SSW 30 37 16 20 1015.0 - -
19/04:29pm 20.2 - - - - SSW 30 - 16 - - 1015.1 -
19/04:00pm 20.0 - - - - SSW 32 41 17 22 1014.7 - -
19/03:30pm 20.1 - - - - SSW 30 33 16 18 1014.6 - -
19/03:29pm 20.2 - - - - SSW 28 - 15 - - 1014.7 -
19/03:00pm 19.9 - - - - SSW 28 33 15 18 1014.6 - -
19/02:30pm 19.9 - - - - SSW 28 33 15 18 1014.5 - -
19/02:29pm 19.8 - - - - SSW 28 - 15 - - 1014.6 -
19/02:00pm 19.9 - - - - SSW 30 35 16 19 1014.6 - -
19/01:30pm 19.8 - - - - SSW 30 37 16 20 1015.0 - -
19/01:29pm 19.8 - - - - SSW 30 - 16 - - 1015.2 -
19/01:00pm 19.8 - - - - SSW 33 37 18 20 1015.3 - -
19/12:30pm 20.3 - - - - S 35 41 19 22 1015.6 - -
19/12:29pm 20.0 - - - - S 35 - 19 - - 1015.7 -
19/12:00pm 20.2 - - - - S 35 41 19 22 1016.1 - -
19/11:30am 20.3 - - - - S 41 46 22 25 1016.4 - -
19/11:29am 20.3 - - - - S 41 - 22 - - 1016.5 -
19/11:00am 20.8 - - - - S 39 50 21 27 1016.9 - -
19/10:30am 20.7 - - - - S 43 48 23 26 1017.1 - -
19/10:29am 20.8 - - - - S 43 - 23 - - 1017.3 -
19/10:00am 21.0 - - - - S 44 52 24 28 1017.4 - -
19/09:30am 21.3 - - - - S 44 52 24 28 1017.6 - -
19/09:29am 21.3 - - - - S 44 - 24 - - 1017.7 -
19/09:00am 21.7 - - - - S 44 50 24 27 1017.7 - -
19/08:30am 21.9 - - - - S 44 56 24 30 1017.3 - -
19/08:29am 21.9 - - - - S 44 - 24 - - 1017.4 -
19/08:00am 22.2 - - - - S 46 52 25 28 1017.1 - -
19/07:30am 22.4 - - - - S 44 52 24 28 1016.9 - -
19/07:29am 22.3 - - - - S 44 - 24 - - 1017.0 -
19/07:00am 22.9 - - - - S 41 46 22 25 1016.7 - -
19/06:30am 23.0 - - - - S 39 46 21 25 1016.5 - -
19/06:29am 23.0 - - - - S 39 - 21 - - 1016.6 -
19/06:00am 23.3 - - - - S 41 46 22 25 1016.2 - -
19/05:30am 23.2 - - - - S 37 41 20 22 1016.0 - -
19/05:29am 23.2 - - - - S 37 - 20 - - 1016.1 -
19/05:00am 23.3 - - - - S 33 39 18 21 1015.7 - -
19/04:30am 22.6 - - - - S 28 33 15 18 1015.5 - -
19/04:29am 22.5 - - - - S 28 - 15 - - 1015.6 -
19/04:00am 22.3 - - - - SSW 28 32 15 17 1015.2 - -

Other Formats:

Comma delimited format used in spreadsheet applications
http://www.bom.gov.au/fwo/IDQ60801/IDQ60801.94379.axf

JavaScript Object Notation format (JSON) in row-major order
http://www.bom.gov.au/fwo/IDQ60801/IDQ60801.94379.json